Time;durP1;ratioP1;P1;durP2;ratioP2;P2;SDS_P1;SDS_P2;PMS_P1;PMS_P2;Temp;Humidity;BMP_temperature;BMP_pressure;BME280_temperature;BME280_humidity;BME280_pressure;Samples;Min_cycle;Max_cycle;Signal;HPM_P1;HPM_P2
2022/02/02 00:03:23;;;;;;;;;;;;;;;21.12;26.87;95219.06;10407757;28;1842;-70
2022/02/02 00:08:29;;;;;;;;;;;;;;;21.12;25.83;95213.78;10411221;28;1837;-69
2022/02/02 00:13:53;;;;;;;;;;;;;;;21.19;26.36;95221.28;10422265;28;1912;-69
2022/02/02 00:18:59;;;;;;;;;;;;;;;21.17;25.54;95194.44;10451237;28;1907;-70
2022/02/02 00:24:04;;;;;;;;;;;;;;;21.20;26.55;95205.22;10408219;28;1877;-69
2022/02/02 00:29:11;;;;;;;;;;;;;;;21.15;26.02;95197.38;10407329;28;1819;-70
2022/02/02 00:34:16;;;;;;;;;;;;;;;21.13;25.89;95191.63;10429898;28;1977;-70
2022/02/02 00:39:17;;;;;;;;;;;;;;;21.12;25.59;95205.88;10411678;28;1850;-70
2022/02/02 00:44:18;;;;;;;;;;;;;;;21.12;25.31;95199.81;10426465;28;1792;-68
2022/02/02 00:49:19;;;;;;;;;;;;;;;21.15;26.63;95149.94;10428097;28;1720;-69
2022/02/02 00:54:21;;;;;;;;;;;;;;;21.10;25.22;95180.88;10397012;28;1971;-69
2022/02/02 00:59:25;;;;;;;;;;;;;;;21.06;25.43;95160.38;10397153;28;1813;-69
2022/02/02 01:04:26;;;;;;;;;;;;;;;21.06;25.63;95163.00;10411683;28;1856;-70
2022/02/02 01:09:35;;;;;;;;;;;;;;;21.08;25.53;95155.59;10414168;28;1963;-69
2022/02/02 01:20:15;;;;;;;;;;;;;;;21.13;25.62;95159.19;10428626;28;1762;-69
2022/02/02 01:30:35;;;;;;;;;;;;;;;21.12;26.19;95157.66;10415467;28;1829;-69
2022/02/02 01:35:35;;;;;;;;;;;;;;;21.09;25.32;95172.19;10428714;28;1918;-69
2022/02/02 01:40:41;;;;;;;;;;;;;;;21.10;25.32;95179.03;10423579;28;1882;-69
2022/02/02 01:45:50;;;;;;;;;;;;;;;21.06;24.91;95149.81;10437704;28;1743;-69
2022/02/02 01:51:11;;;;;;;;;;;;;;;21.05;26.00;95143.00;10421575;28;1853;-70
2022/02/02 01:56:13;;;;;;;;;;;;;;;21.11;25.48;95137.63;10417544;28;1914;-71
2022/02/02 02:01:15;;;;;;;;;;;;;;;21.09;26.13;95119.47;10439102;28;1830;-68
2022/02/02 02:06:17;;;;;;;;;;;;;;;21.12;25.45;95121.53;10435360;28;2139;-69
2022/02/02 02:11:21;;;;;;;;;;;;;;;21.11;25.61;95135.78;10435223;28;2020;-72
2022/02/02 02:16:24;;;;;;;;;;;;;;;21.17;25.58;95125.91;10434531;28;2215;-71
2022/02/02 02:21:26;;;;;;;;;;;;;;;21.14;25.69;95115.97;10433166;28;1778;-70
2022/02/02 02:26:28;;;;;;;;;;;;;;;21.19;26.15;95131.69;10402786;28;2184;-70
2022/02/02 04:01:09;;;;;;;;;;;;;;;21.19;25.99;95152.78;10440807;28;1857;-70
2022/02/02 04:06:08;;;;;;;;;;;;;;;21.20;25.87;95167.53;10429202;28;1983;-68
2022/02/02 04:11:21;;;;;;;;;;;;;;;21.15;25.21;95154.41;10432264;28;1952;-69
2022/02/02 04:58:43;;;;;;;;;;;;;;;21.16;25.51;95146.25;10433860;28;1953;-69
2022/02/02 05:04:07;;;;;;;;;;;;;;;21.20;25.28;95172.78;10403675;28;1950;-71
2022/02/02 05:56:03;;;;;;;;;;;;;;;21.31;25.97;95232.19;10435900;28;2067;-70
2022/02/02 06:01:04;;;;;;;;;;;;;;;21.30;26.20;95189.22;10416650;28;1905;-70
2022/02/02 06:06:05;;;;;;;;;;;;;;;21.31;26.28;95219.75;10410089;28;2120;-70
2022/02/02 06:11:06;;;;;;;;;;;;;;;21.28;25.22;95223.00;10424341;28;1944;-69
2022/02/02 06:16:07;;;;;;;;;;;;;;;21.29;26.03;95210.59;10417358;28;1977;-69
2022/02/02 06:21:09;;;;;;;;;;;;;;;21.31;26.33;95227.66;10419480;28;1909;-72
2022/02/02 06:26:12;;;;;;;;;;;;;;;21.34;25.62;95279.84;10411767;28;1928;-68
2022/02/02 06:31:13;;;;;;;;;;;;;;;21.34;26.35;95303.56;10430593;28;1978;-70
2022/02/02 06:36:15;;;;;;;;;;;;;;;21.39;26.64;95314.00;10428160;28;1968;-69
2022/02/02 06:41:17;;;;;;;;;;;;;;;21.34;25.73;95311.47;10422987;28;1989;-69
2022/02/02 06:46:18;;;;;;;;;;;;;;;21.29;26.06;95321.31;10425499;28;1937;-69
2022/02/02 06:51:47;;;;;;;;;;;;;;;21.20;25.66;95307.22;10427644;28;1943;-69
2022/02/02 06:56:51;;;;;;;;;;;;;;;21.26;26.26;95324.53;10423245;28;1950;-68
2022/02/02 07:07:26;;;;;;;;;;;;;;;21.29;26.12;95334.50;10432602;28;1823;-71
2022/02/02 07:12:36;;;;;;;;;;;;;;;21.28;25.44;95338.19;10413150;28;1973;-70
2022/02/02 07:17:46;;;;;;;;;;;;;;;21.21;25.44;95321.94;10412241;28;1707;-68
2022/02/02 07:28:15;;;;;;;;;;;;;;;21.21;25.43;95317.47;10430011;28;1904;-69
2022/02/02 07:33:20;;;;;;;;;;;;;;;21.33;26.17;95311.75;10434468;28;1910;-71
2022/02/02 07:38:21;;;;;;;;;;;;;;;21.37;25.59;95315.38;10414276;28;1801;-72
2022/02/02 07:43:23;;;;;;;;;;;;;;;21.45;26.47;95315.47;10400217;28;1916;-70
2022/02/02 07:48:24;;;;;;;;;;;;;;;21.47;26.39;95316.00;10436443;28;1826;-70
2022/02/02 07:53:34;;;;;;;;;;;;;;;21.39;26.08;95327.19;10434838;28;1969;-69
2022/02/02 07:58:36;;;;;;;;;;;;;;;21.61;27.12;95350.31;10413941;28;1748;-69
2022/02/02 08:03:43;;;;;;;;;;;;;;;21.56;26.43;95366.22;10432489;28;1834;-70
2022/02/02 08:08:49;;;;;;;;;;;;;;;21.50;26.83;95377.91;10429810;28;1853;-73
2022/02/02 08:13:55;;;;;;;;;;;;;;;21.51;26.50;95361.03;10412338;28;1902;-69
2022/02/02 08:18:55;;;;;;;;;;;;;;;21.48;25.64;95374.78;10433216;28;1849;-70
2022/02/02 08:23:55;;;;;;;;;;;;;;;21.52;26.80;95386.31;10414664;28;1954;-69
2022/02/02 08:28:58;;;;;;;;;;;;;;;21.52;26.80;95405.56;10426162;28;1878;-71
2022/02/02 08:34:01;;;;;;;;;;;;;;;21.51;25.62;95421.69;10403567;28;1923;-72
2022/02/02 08:44:14;;;;;;;;;;;;;;;21.54;25.56;95445.63;10428833;28;1896;-71
2022/02/02 08:49:18;;;;;;;;;;;;;;;21.55;25.39;95438.50;10392321;28;2011;-70
2022/02/02 08:54:27;;;;;;;;;;;;;;;21.56;26.00;95451.41;10391594;28;1983;-68
2022/02/02 09:20:38;;;;;;;;;;;;;;;21.69;27.03;95441.97;10414743;28;1788;-73
2022/02/02 09:25:43;;;;;;;;;;;;;;;21.66;26.26;95437.25;10432011;28;1923;-69
2022/02/02 09:36:08;;;;;;;;;;;;;;;21.64;26.76;95466.56;10423178;28;1961;-71
2022/02/02 09:46:25;;;;;;;;;;;;;;;21.66;26.71;95479.47;10420450;28;1755;-70
2022/02/02 09:51:40;;;;;;;;;;;;;;;21.65;26.27;95480.56;10428968;28;1915;-70
2022/02/02 09:57:24;;;;;;;;;;;;;;;21.73;27.25;95488.59;10424368;28;2325;-71
2022/02/02 10:17:57;;;;;;;;;;;;;;;21.67;26.60;95524.06;10429618;28;1893;-71
2022/02/02 10:22:59;;;;;;;;;;;;;;;21.66;26.79;95519.03;10427574;28;1838;-71
2022/02/02 10:28:19;;;;;;;;;;;;;;;21.62;26.68;95518.84;10431020;28;1782;-69
2022/02/02 10:33:23;;;;;;;;;;;;;;;21.64;26.81;95515.91;10427761;28;1898;-70
2022/02/02 10:38:28;;;;;;;;;;;;;;;21.64;26.89;95521.97;10434489;28;1831;-70
2022/02/02 10:43:33;;;;;;;;;;;;;;;21.62;26.85;95520.69;10441477;28;1864;-71
2022/02/02 10:48:40;;;;;;;;;;;;;;;21.59;26.48;95518.63;10413896;28;1754;-70
2022/02/02 11:10:05;;;;;;;;;;;;;;;21.56;26.51;95553.47;10423566;28;2222;-72
2022/02/02 11:15:05;;;;;;;;;;;;;;;21.56;26.98;95551.63;10408466;28;2168;-71
2022/02/02 11:20:07;;;;;;;;;;;;;;;21.56;26.55;95545.56;10427155;28;2162;-70
2022/02/02 11:25:10;;;;;;;;;;;;;;;21.55;26.98;95550.06;10422686;28;1883;-70
2022/02/02 11:30:20;;;;;;;;;;;;;;;21.65;26.87;95547.28;10429806;28;2131;-69
2022/02/02 11:35:52;;;;;;;;;;;;;;;21.63;27.15;95541.53;10433547;28;1963;-72
2022/02/02 11:51:54;;;;;;;;;;;;;;;21.71;28.03;95548.00;10308709;28;2010;-71
2022/02/02 11:56:57;;;;;;;;;;;;;;;21.70;28.17;95541.16;10421407;28;1887;-72
2022/02/02 12:02:08;;;;;;;;;;;;;;;21.62;27.29;95532.03;10422849;28;1823;-70
2022/02/02 12:07:17;;;;;;;;;;;;;;;21.56;27.32;95541.06;10419407;28;1964;-70
2022/02/02 13:04:55;;;;;;;;;;;;;;;21.36;27.26;95564.28;10431457;28;1826;-71
2022/02/02 13:09:57;;;;;;;;;;;;;;;21.40;26.91;95563.44;10409443;28;2157;-70
2022/02/02 13:20:24;;;;;;;;;;;;;;;21.48;27.11;95591.81;10433340;28;1812;-72
2022/02/02 13:25:30;;;;;;;;;;;;;;;21.45;27.25;95596.88;10427510;28;1854;-70
2022/02/02 13:30:53;;;;;;;;;;;;;;;21.42;27.26;95618.53;10406754;28;1841;-72
2022/02/02 13:36:16;;;;;;;;;;;;;;;21.41;26.74;95611.69;10427991;28;1902;-70
2022/02/02 13:47:19;;;;;;;;;;;;;;;21.28;26.39;95659.81;10441715;28;1844;-71
2022/02/02 13:57:42;;;;;;;;;;;;;;;21.45;27.29;95670.72;10424263;28;1827;-70
2022/02/02 14:34:14;;;;;;;;;;;;;;;21.34;25.96;95732.53;10429643;28;1906;-68
2022/02/02 14:39:20;;;;;;;;;;;;;;;21.29;25.81;95751.03;10429952;28;1799;-69
2022/02/02 14:44:29;;;;;;;;;;;;;;;21.29;26.61;95751.03;10428506;28;1818;-70
2022/02/02 14:49:39;;;;;;;;;;;;;;;21.39;26.23;95779.97;10414874;28;1836;-70
2022/02/02 14:55:15;;;;;;;;;;;;;;;21.41;27.31;95798.91;10446782;28;1996;-71
2022/02/02 15:32:01;;;;;;;;;;;;;;;21.42;26.40;95838.19;10421158;28;1841;-68
2022/02/02 15:42:40;;;;;;;;;;;;;;;21.38;26.78;95850.34;10428522;28;1813;-68
2022/02/02 15:58:21;;;;;;;;;;;;;;;21.41;26.92;95881.44;10428979;28;1827;-69
2022/02/02 16:03:28;;;;;;;;;;;;;;;21.43;27.11;95883.81;10427292;28;1865;-71
2022/02/02 16:08:29;;;;;;;;;;;;;;;21.44;27.12;95880.09;10429232;28;1754;-68
2022/02/02 16:13:38;;;;;;;;;;;;;;;21.44;26.17;95895.94;10429496;28;1997;-69
2022/02/02 16:18:44;;;;;;;;;;;;;;;21.42;26.51;95887.50;10429698;28;1814;-68
2022/02/02 16:39:51;;;;;;;;;;;;;;;21.34;26.15;95880.97;10419193;28;1809;-68
2022/02/02 16:44:51;;;;;;;;;;;;;;;21.34;26.03;95896.00;10427386;28;1799;-69
2022/02/02 16:49:51;;;;;;;;;;;;;;;21.34;25.80;95901.28;10422615;28;1891;-69
2022/02/02 16:54:53;;;;;;;;;;;;;;;21.34;26.41;95904.72;10425723;28;2000;-69
2022/02/02 17:31:45;;;;;;;;;;;;;;;21.35;26.36;95945.06;10435510;28;1862;-68
2022/02/02 17:36:55;;;;;;;;;;;;;;;21.33;26.08;95942.66;10431593;28;1914;-68
2022/02/02 18:28:48;;;;;;;;;;;;;;;21.55;26.16;96018.78;10429021;28;1850;-70
2022/02/02 18:59:58;;;;;;;;;;;;;;;21.58;25.95;96087.59;10432105;28;1846;-70
2022/02/02 19:31:14;;;;;;;;;;;;;;;21.63;26.42;96115.81;10430895;28;1543;-70
2022/02/02 20:12:38;;;;;;;;;;;;;;;21.69;26.80;96143.75;10413910;28;1973;-70
2022/02/02 20:17:38;;;;;;;;;;;;;;;21.70;26.79;96158.53;10427429;28;2052;-71
2022/02/02 20:22:39;;;;;;;;;;;;;;;21.69;26.83;96147.19;10428166;28;1820;-71
2022/02/02 20:27:39;;;;;;;;;;;;;;;21.68;26.89;96147.44;10422466;28;1756;-70
2022/02/02 20:32:40;;;;;;;;;;;;;;;21.68;27.07;96152.69;10411299;28;1958;-71
2022/02/02 20:37:41;;;;;;;;;;;;;;;21.64;26.90;96151.66;10426538;28;1748;-71
2022/02/02 20:42:54;;;;;;;;;;;;;;;21.63;27.11;96158.00;10428478;28;1913;-71
2022/02/02 21:14:51;;;;;;;;;;;;;;;21.61;27.36;96207.63;10427622;28;1898;-71
2022/02/02 21:19:59;;;;;;;;;;;;;;;21.58;27.18;96208.94;10426469;28;1811;-71
2022/02/02 21:25:19;;;;;;;;;;;;;;;21.56;27.20;96215.53;10402389;28;1760;-71
2022/02/02 21:30:19;;;;;;;;;;;;;;;21.58;27.32;96214.22;10392590;28;1800;-70
2022/02/02 21:35:20;;;;;;;;;;;;;;;21.57;27.21;96209.22;10405548;28;1981;-70
2022/02/02 21:40:24;;;;;;;;;;;;;;;21.56;27.29;96205.78;10427907;28;1869;-69
2022/02/02 21:45:25;;;;;;;;;;;;;;;21.56;27.40;96197.06;10421765;28;1696;-70
2022/02/02 21:50:31;;;;;;;;;;;;;;;21.56;27.33;96210.25;10408335;28;1866;-70
2022/02/02 21:55:31;;;;;;;;;;;;;;;21.58;27.32;96206.31;10421061;28;1914;-71
2022/02/02 22:00:32;;;;;;;;;;;;;;;21.56;27.01;96208.41;10423281;28;1875;-71
2022/02/02 22:05:33;;;;;;;;;;;;;;;21.50;27.06;96206.84;10428499;28;1897;-71
2022/02/02 22:10:34;;;;;;;;;;;;;;;21.47;27.13;96210.03;10429111;28;1806;-70
2022/02/02 22:15:49;;;;;;;;;;;;;;;21.47;26.46;96211.88;10433308;28;1914;-71
2022/02/02 22:20:50;;;;;;;;;;;;;;;21.47;27.20;96217.97;10397730;28;1974;-71
2022/02/02 22:25:51;;;;;;;;;;;;;;;21.55;27.78;96213.97;10427657;28;1967;-72
2022/02/02 22:30:52;;;;;;;;;;;;;;;21.62;28.42;96209.19;10396111;28;1799;-72
2022/02/02 22:35:52;;;;;;;;;;;;;;;21.67;29.16;96219.72;10414203;28;1910;-72
2022/02/02 22:40:55;;;;;;;;;;;;;;;21.69;29.62;96223.69;10433186;28;1837;-73
2022/02/02 22:45:56;;;;;;;;;;;;;;;21.70;29.01;96214.69;10412376;28;1786;-71
2022/02/02 22:50:59;;;;;;;;;;;;;;;21.71;29.94;96226.06;10428305;28;1875;-72
2022/02/02 22:56:00;;;;;;;;;;;;;;;21.69;29.78;96218.41;10413192;28;1967;-71
2022/02/02 23:01:00;;;;;;;;;;;;;;;21.72;29.77;96235.56;10425971;28;1819;-71
2022/02/02 23:06:02;;;;;;;;;;;;;;;21.70;29.94;96232.41;10433428;28;1791;-70
2022/02/02 23:11:02;;;;;;;;;;;;;;;21.71;30.04;96233.97;10435829;28;1857;-71
2022/02/02 23:21:06;;;;;;;;;;;;;;;21.71;29.42;96239.25;10431864;28;1832;-70
2022/02/02 23:26:13;;;;;;;;;;;;;;;21.70;29.02;96242.97;10427131;28;1835;-72
2022/02/02 23:31:15;;;;;;;;;;;;;;;21.68;29.71;96245.03;10413457;28;1824;-70
2022/02/02 23:36:17;;;;;;;;;;;;;;;21.66;29.40;96245.31;10419552;28;1967;-71
2022/02/02 23:46:43;;;;;;;;;;;;;;;21.64;29.51;96244.78;10434692;28;1885;-69
2022/02/02 23:51:45;;;;;;;;;;;;;;;21.68;29.24;96247.69;10422903;28;2215;-70
